»·PEaware :: N522PM KYKM-KPDX

N522PM :: KYKM-KPDX

FLIGHT INFORMATION

Flight Status: Arrived
Operator: Privately registered:
United States
More flights under this callsign
Pilot: Bruce B. (6887)
Aircraft: Unknown
(LEG2)
More flights by this aircraft type
Origin: KYKM Yakima Air Term/Mcallister
United States
Destination: KPDX Portland Intl
United States
More flights between these airports :: More routes between these airports
Route: +DIRECT
File this flight plan on PilotEdge
Remarks:
Altitude:
(Current/Filed)
8,500ft
Speed:
(Current/Filed)
230kts
Departed: 28-Feb-20 04:19 PM
Arrived: 28-Feb-20 05:00 PM
Distance/Time
Traveled:
103nm/0:41
Distance/Time
To Go:
Arrived

Flight Plot

Page will automatically refresh every two minutes.

Flight plan parsing failed; only flown route is shown


Map Options




Map Legend


Flown Route
Filed Route
Departure Airport
Arrival Airport
Navaid (VOR, NDB)
Fix

Horizontal Profiles

Position Reports

Time Latitude Longitude Heading Altitude Ground
Speed
28-Feb-20 15:57 46.568279 -120.531618 45 1098ft 0kts
28-Feb-20 15:58 46.568280 -120.531618 44 1098ft 0kts
28-Feb-20 15:59 46.568281 -120.531616 44 1098ft 0kts
28-Feb-20 16:00 46.568282 -120.531614 44 1098ft 0kts
28-Feb-20 16:01 46.568284 -120.531612 44 1098ft 0kts
28-Feb-20 16:02 46.568285 -120.531610 44 1098ft 0kts
28-Feb-20 16:03 46.568286 -120.531608 44 1098ft 0kts
28-Feb-20 16:04 46.568287 -120.531607 44 1098ft 0kts
28-Feb-20 16:05 46.568288 -120.531606 44 1098ft 0kts
28-Feb-20 16:06 46.568288 -120.531605 44 1098ft 0kts
28-Feb-20 16:07 46.568289 -120.531604 44 1098ft 0kts
28-Feb-20 16:08 46.568290 -120.531603 44 1098ft 0kts
28-Feb-20 16:09 46.568290 -120.531602 44 1098ft 0kts
28-Feb-20 16:10 46.568291 -120.531601 44 1098ft 0kts
28-Feb-20 16:11 46.568292 -120.531600 44 1098ft 0kts
28-Feb-20 16:12 46.568292 -120.531599 44 1098ft 0kts
28-Feb-20 16:13 46.568293 -120.531599 44 1098ft 0kts
28-Feb-20 16:14 46.568294 -120.531598 44 1098ft 0kts
28-Feb-20 16:15 46.568159 -120.532036 109 1098ft 0kts
28-Feb-20 16:16 46.566077 -120.531093 192 1098ft 0kts
28-Feb-20 16:17 46.565666 -120.531280 198 1098ft 9kts
28-Feb-20 16:18 46.575190 -120.561637 291 1678ft 132kts
28-Feb-20 16:19 46.588939 -120.609930 279 3533ft 130kts
28-Feb-20 16:20 46.571400 -120.648004 221 5417ft 127kts
28-Feb-20 16:21 46.541125 -120.673853 195 6936ft 133kts
28-Feb-20 16:22 46.511896 -120.703444 224 8299ft 133kts
28-Feb-20 16:23 46.476833 -120.744231 216 8506ft 182kts
28-Feb-20 16:24 46.433859 -120.788757 217 8514ft 195kts
28-Feb-20 16:25 46.388797 -120.836144 217 8510ft 200kts
28-Feb-20 16:26 46.343951 -120.883214 217 8522ft 200kts
28-Feb-20 16:27 46.298069 -120.931267 217 8528ft 202kts
28-Feb-20 16:28 46.252334 -120.979066 217 8538ft 203kts
28-Feb-20 16:29 46.218809 -121.044740 238 8534ft 203kts
28-Feb-20 16:30 46.189950 -121.116887 238 8290ft 205kts
28-Feb-20 16:31 46.162035 -121.187307 238 8314ft 199kts
28-Feb-20 16:32 46.134505 -121.256622 239 8328ft 198kts
28-Feb-20 16:33 46.108008 -121.323192 239 8337ft 199kts
28-Feb-20 16:34 46.080289 -121.392678 239 8350ft 199kts
28-Feb-20 16:35 46.052684 -121.461695 239 8366ft 200kts
28-Feb-20 16:36 46.024292 -121.532663 238 8359ft 201kts
28-Feb-20 16:37 45.990752 -121.596067 232 8367ft 198kts
28-Feb-20 16:38 45.955938 -121.657706 232 8388ft 196kts
28-Feb-20 16:39 45.924134 -121.714067 232 7865ft 174kts
28-Feb-20 16:40 45.894146 -121.767461 232 7197ft 171kts
28-Feb-20 16:41 45.863697 -121.822065 232 6524ft 172kts
28-Feb-20 16:42 45.835571 -121.872738 232 6423ft 155kts
28-Feb-20 16:43 45.809390 -121.920112 232 6443ft 151kts
28-Feb-20 16:44 45.782650 -121.968849 233 6460ft 152kts
28-Feb-20 16:45 45.756849 -122.016109 233 6462ft 148kts
28-Feb-20 16:46 45.731586 -122.062642 233 6039ft 146kts
28-Feb-20 16:47 45.708231 -122.108593 237 5386ft 140kts
28-Feb-20 16:48 45.687052 -122.155570 237 4732ft 140kts
28-Feb-20 16:49 45.666890 -122.200689 237 4495ft 132kts
28-Feb-20 16:50 45.648982 -122.240781 238 4028ft 97kts
28-Feb-20 16:51 45.633161 -122.276876 240 3387ft 113kts
28-Feb-20 16:52 45.618939 -122.314153 238 2736ft 104kts
28-Feb-20 16:53 45.603344 -122.348831 240 2231ft 105kts
28-Feb-20 16:54 45.591505 -122.387324 245 1934ft 111kts
28-Feb-20 16:55 45.581931 -122.429808 249 1791ft 115kts
28-Feb-20 16:57 45.573551 -122.472937 255 1374ft 101kts
28-Feb-20 16:58 45.569588 -122.511870 254 937ft 96kts
28-Feb-20 16:59 45.576771 -122.548676 289 379ft 99kts
28-Feb-20 17:00 45.587884 -122.577982 294 33ft 37kts
28-Feb-20 17:01 45.588569 -122.582245 208 33ft 2kts
28-Feb-20 17:02 45.587476 -122.584259 213 33ft 2kts
28-Feb-20 17:03 45.587472 -122.584261 208 33ft 0kts

Navigation Log

Ident Type
Flight plan parsing failed, navigation log unavailable